• Join FlightAware (Why Join?)
  • Login
  • US Flag 
10:53AM EDT


 

Airport Tracker/Info


-or-


 

Live Flight TrackerFlight Track Log ✈ DAL1114 ✈ 21-Apr-2013 ✈ KSLC - KBWI

Flight Track Log - Related Links

Times and Time Zones

All times are in EDT time to prevent confusion due to time zone crossing. See the DAL1114 flight status page for this flight to view local times or setup timezone preferences in your user account.

Time Position Orientation Groundspeed Altitude Reporting Facility
EDT Latitude Longitude Course Direction KTS MPH feet Rate Location/Type
07:30PM 40.8153 -112.0019 133° Southeast 187 215 5,100  Level Salt Lake Center
07:31PM 40.8461 -112.0056 355° North 192 221 5,800 960 Climbing Salt Lake Center
07:31PM 40.8836 -112.0092 356° North 227 261 6,300 1,860 Climbing Salt Lake Center
07:32PM 40.9575 -112.0175 355° North 263 303 8,900 2,520 Climbing Salt Lake Center
07:33PM 41.1333 -111.9083 90° East  Level FlightAware Approximate
07:33PM 41.0303 -111.9914 15° North 279 321 11,500  Level Salt Lake Center
07:34PM 41.1060 -111.7453 124° Southeast  Level FlightAware Approximate
07:34PM 41.0364 -111.8847 86° East 299 344 13,500  Level Salt Lake Center
07:35PM 41.0184 -111.6191 133° Southeast  Level FlightAware Approximate
07:35PM 41.0317 -111.7522 93° East 329 379 15,000  Level Salt Lake Center
07:36PM 41.0297 -111.6158 91° East 373 429 16,100 1,020 Climbing Salt Lake Center
07:37PM 41.0428 -111.4633 83° East 417 480 17,100 1,200 Climbing Salt Lake Center
07:38PM 41.0558 -111.3028 84° East 437 503 18,700 1,500 Climbing Salt Lake Center
07:39PM 41.0664 -111.1389 85° East 448 516 20,200 1,500 Climbing Salt Lake Center
07:40PM 41.0817 -110.9344 84° East 464 534 21,800 1,440 Climbing Salt Lake Center
07:42PM 41.0939 -110.7583 85° East 478 550 23,200 1,440 Climbing Salt Lake Center
07:43PM 41.1069 -110.5817 84° East 484 557 24,800 1,440 Climbing Salt Lake Center
07:44PM 41.1186 -110.4017 85° East 469 540 26,200 1,080 Climbing Salt Lake Center
07:45PM 41.1289 -110.2325 85° East 479 551 27,100 780 Climbing Salt Lake Center
07:46PM 41.1436 -110.0306 84° East 492 566 27,900 780 Climbing Salt Lake Center
07:47PM 41.1544 -109.8528 85° East 504 580 28,700 780 Climbing Salt Lake Center
07:48PM 41.1667 -109.6439 85° East 510 587 29,500 660 Climbing Salt Lake Center
07:49PM 41.1783 -109.4603 85° East 522 601 30,100 540 Climbing Salt Lake Center
07:50PM 41.1906 -109.2444 86° East 531 611 30,700 600 Climbing Salt Lake Center
07:51PM 41.2017 -109.0583 85° East 535 616 31,400 840 Climbing Salt Lake Center
07:52PM 41.2133 -108.8419 86° East 534 615 32,500 720 Climbing Salt Lake Center
07:53PM 41.2239 -108.6569 86° East 531 611 32,900 300 Climbing Salt Lake Center
07:53PM 41.2297 -108.5289 86° East 535 616 33,000 60 Climbing Denver Center
07:54PM 41.2389 -108.3433 86° East 531 611 33,000  Level Denver Center
07:55PM 41.2492 -108.1239 86° East 534 615 33,000  Level Denver Center
07:56PM 41.2525 -108.0606 86° East 539 620 33,000 60 Level Salt Lake Center
07:57PM 41.2619 -107.8392 87° East 540 621 33,100 60 Climbing Salt Lake Center
07:58PM 41.2675 -107.7125 87° East 537 618 33,100 -120 Level Denver Center
07:59PM 41.2767 -107.5242 86° East 536 617 33,000 -60 Descending Denver Center
08:00PM 41.2847 -107.3367 87° East 533 613 33,000  Level Denver Center
08:01PM 41.2931 -107.1214 87° East 525 604 33,000  Level Denver Center
08:02PM 41.2997 -106.9369 87° East 524 603 33,000  Level Denver Center
08:03PM 41.3078 -106.7231 87° East 521 600 33,000  Level Denver Center
08:04PM 41.3133 -106.5694 87° East 522 601 33,000  Level Denver Center
08:05PM 41.3200 -106.3206 88° East 526 605 33,000  Level Denver Center
08:06PM 41.3267 -106.1372 87° East 521 600 33,100  Climbing Denver Center
08:07PM 41.3322 -105.9256 88° East 517 595 33,000 -60 Descending Denver Center
08:08PM 41.3375 -105.7442 88° East 514 592 33,000  Level Denver Center
08:09PM 41.3450 -105.5319 87° East 515 593 33,000  Level Denver Center
08:10PM 41.3517 -105.3506 87° East 513 590 33,000  Level Denver Center
08:11PM 41.3575 -105.1383 88° East 515 593 33,000  Level Denver Center
08:12PM 41.3636 -104.9597 87° East 508 585 33,000  Level Denver Center
08:13PM 41.3683 -104.7775 88° East 513 590 33,000  Level Denver Center
08:14PM 41.3744 -104.5711 88° East 507 583 33,000  Level Denver Center
08:15PM 41.3794 -104.3900 88° East 513 590 33,000  Level Denver Center
08:16PM 41.3850 -104.1792 88° East 511 588 33,000  Level Denver Center
08:17PM 41.3889 -103.9978 88° East 513 590 33,000  Level Denver Center
08:18PM 41.3928 -103.7869 89° East 511 588 33,000  Level Denver Center
08:19PM 41.3975 -103.6053 88° East 514 592 33,000  Level Denver Center
08:20PM 41.4008 -103.3956 89° East 511 588 33,000  Level Denver Center
08:21PM 41.4031 -103.2136 89° East 513 590 33,000  Level Denver Center
08:22PM 41.4064 -103.0006 89° East 515 593 33,000  Level Denver Center
08:23PM 41.4089 -102.8181 89° East 515 593 33,000  Level Denver Center
08:24PM 41.4114 -102.6031 89° East 519 597 33,000  Level Denver Center
08:25PM 41.4139 -102.4100 89° East 520 598 33,000  Level Denver Center
08:26PM 41.4142 -102.2283 90° East 515 593 33,000  Level Denver Center
08:27PM 41.4153 -102.0167 90° East 511 588 33,000  Level Denver Center
08:28PM 41.4169 -101.8353 89° East 512 589 33,000  Level Denver Center
08:30PM 41.4172 -101.6228 90° East 513 590 33,000  Level Denver Center
08:31PM 41.4172 -101.4419 90° East 509 586 33,000 480 Level Denver Center
08:32PM 41.4172 -101.2053 90° East 498 573 34,100 960 Climbing Denver Center
08:33PM 41.4169 -101.0339 90° East 485 558 35,000 420 Climbing Denver Center
08:34PM 41.4164 -100.8892 90° East 486 559 35,000  Level Denver Center
08:35PM 41.4153 -100.6539 90° East 495 570 35,000  Level Denver Center
08:36PM 41.4131 -100.4467 91° East 500 575 35,000  Level Denver Center
08:37PM 41.4114 -100.2664 91° East 504 580 35,000  Level Denver Center
08:38PM 41.4092 -100.0858 91° East 508 585 35,100  Climbing Denver Center
08:39PM 41.4069 -99.8764 91° East 506 582 35,000 -60 Descending Denver Center
08:40PM 41.4042 -99.6778 91° East 505 581 35,000  Level Denver Center
08:41PM 41.4017 -99.4919 91° East 503 579 35,000  Level Denver Center
08:42PM 41.3981 -99.3036 91° East 505 581 35,000  Level Denver Center
08:43PM 41.3939 -99.1164 92° East 504 580 35,000 -120 Level Denver Center
08:43PM 41.3922 -99.0481 92° East 502 578 34,900  Descending Minneapolis Center
08:44PM 41.3881 -98.8617 92° East 503 579 35,000  Climbing Minneapolis Center
08:45PM 41.3839 -98.6742 92° East 505 581 35,000  Level Minneapolis Center
08:47PM 41.3806 -98.4875 91° East 506 582 35,000  Level Minneapolis Center
08:48PM 41.3772 -98.2822 91° East 508 585 35,000  Level Minneapolis Center
08:49PM 41.3842 -98.0942 87° East 507 583 35,000  Level Minneapolis Center
08:50PM 41.3900 -97.9261 87° East 505 581 35,000  Level Minneapolis Center
08:51PM 41.3950 -97.7400 88° East 504 580 35,000  Level Minneapolis Center
08:52PM 41.3997 -97.5556 88° East 500 575 35,000  Level Minneapolis Center
08:53PM 41.4061 -97.3322 88° East 503 579 35,000  Level Minneapolis Center
08:54PM 41.4092 -97.1478 89° East 500 575 35,000  Level Minneapolis Center
08:55PM 41.4142 -96.9631 88° East 499 574 35,000  Level Minneapolis Center
08:56PM 41.4181 -96.7792 88° East 498 573 35,000  Level Minneapolis Center
08:57PM 41.4217 -96.5950 88° East 497 572 35,000  Level Minneapolis Center
08:58PM 41.4247 -96.4478 88° East 496 571 35,000  Level Minneapolis Center
08:59PM 41.4175 -96.2033 92° East 508 585 35,000  Level Minneapolis Center
09:00PM 41.4125 -96.0183 92° East 503 579 35,000  Level Minneapolis Center
09:01PM 41.4053 -95.8339 93° East 500 575 35,000  Level Minneapolis Center
09:02PM 41.3975 -95.6517 93° East 495 570 35,000  Level Minneapolis Center
09:03PM 41.3914 -95.4769 93° East 485 558 35,000  Level Minneapolis Center
09:04PM 41.3825 -95.2664 93° East 476 548 35,000  Level Minneapolis Center
09:05PM 41.3750 -95.0897 93° East 478 550 35,000  Level Minneapolis Center
09:06PM 41.3669 -94.9144 93° East 476 548 35,000  Level Minneapolis Center
09:07PM 41.3589 -94.7425 94° East 469 540 35,000  Level Minneapolis Center
09:08PM 41.3514 -94.5683 93° East 470 541 35,000  Level Minneapolis Center
09:09PM 41.3419 -94.3947 94° East 470 541 35,000  Level Minneapolis Center
09:10PM 41.3342 -94.2125 93° East 473 544 35,000  Level Minneapolis Center
09:11PM 41.3228 -94.0375 95° East 476 548 35,000  Level Minneapolis Center
09:12PM 41.3150 -93.8558 93° East 489 563 35,000  Level Minneapolis Center
09:13PM 41.3036 -93.6406 94° East 490 564 35,000  Level Minneapolis Center
09:14PM 41.2944 -93.4583 94° East 493 567 35,000  Level Minneapolis Center
09:15PM 41.2839 -93.2778 94° East 494 568 35,000  Level Minneapolis Center
09:16PM 41.2733 -93.0975 94° East 492 566 35,000  Level Minneapolis Center
09:17PM 41.2628 -92.9197 94° East 488 562 35,000  Level Minneapolis Center
09:18PM 41.2522 -92.7397 94° East 490 564 35,000  Level Minneapolis Center
09:19PM 41.2400 -92.5597 95° East 490 564 35,000  Level Minneapolis Center
09:20PM 41.2325 -92.4500 95° East 488 562 35,000  Level Chicago Center
09:21PM 41.2214 -92.2717 95° East 487 560 35,000  Level Chicago Center
09:22PM 41.2097 -92.0939 95° East 486 559 35,000  Level Chicago Center
09:23PM 41.1961 -91.9156 96° East 488 562 35,000  Level Chicago Center
09:24PM 41.1842 -91.7394 95° East 481 554 35,000  Level Chicago Center
09:25PM 41.1703 -91.5594 96° East 482 555 35,000  Level Chicago Center
09:26PM 41.1578 -91.3822 95° East 483 556 35,000  Level Chicago Center
09:27PM 41.1447 -91.2053 96° East 483 556 35,000  Level Chicago Center
09:28PM 41.1283 -90.9933 96° East 482 555 35,000  Level Chicago Center
09:29PM 41.1144 -90.8172 96° East 480 552 35,000  Level Chicago Center
09:30PM 41.1006 -90.6394 96° East 484 557 35,000  Level Chicago Center
09:31PM 41.0861 -90.4636 96° East 481 554 35,000  Level Chicago Center
09:32PM 41.0714 -90.2900 96° East 475 547 35,000  Level Chicago Center
09:33PM 41.0561 -90.1144 97° East 475 547 35,000  Level Chicago Center
09:34PM 41.0411 -89.9375 96° East 479 551 35,000  Level Chicago Center
09:35PM 41.0247 -89.7603 97° East 479 551 35,000  Level Chicago Center
09:36PM 41.0083 -89.5858 97° East 475 547 35,000  Level Chicago Center
09:37PM 40.9900 -89.3761 97° East 475 547 35,000  Level Chicago Center
09:38PM 40.9736 -89.2031 97° East 473 544 35,000  Level Chicago Center
09:39PM 40.9567 -89.0297 97° East 473 544 35,000  Level Chicago Center
09:40PM 40.9406 -88.8567 97° East 474 545 35,000  Level Chicago Center
09:41PM 40.9236 -88.6917 98° East 474 545 35,000  Level Chicago Center
09:42PM 40.9064 -88.5206 98° East 474 545 35,000  Level Chicago Center
09:43PM 40.8858 -88.3139 97° East 477 549 35,000  Level Chicago Center
09:45PM 40.8692 -88.1417 97° East 478 550 35,000  Level Chicago Center
09:46PM 40.8508 -87.9717 98° East 476 548 35,000  Level Chicago Center
09:47PM 40.8336 -87.8019 98° East 473 544 35,000  Level Chicago Center
09:48PM 40.8158 -87.6322 98° East 473 544 35,000  Level Chicago Center
09:49PM 40.7933 -87.4256 98° East 479 551 35,000  Level Chicago Center
09:50PM 40.7747 -87.2564 98° East 473 544 35,000  Level Chicago Center
09:51PM 40.7556 -87.0850 98° East 477 549 35,000  Level Chicago Center
09:52PM 40.7356 -86.9153 99° East 474 545 35,000  Level Chicago Center
09:53PM 40.7153 -86.7447 99° East 475 547 35,000  Level Chicago Center
09:54PM 40.6917 -86.5528 99° East 469 540 35,000  Level Chicago Center
09:55PM 40.6708 -86.3817 99° East 474 545 35,000  Level Chicago Center
09:56PM 40.6506 -86.2119 99° East 473 544 35,000  Level Chicago Center
09:57PM 40.6297 -86.0425 99° East 476 548 35,000  Level Chicago Center
09:58PM 40.6089 -85.8739 99° East 473 544 35,000  Level Chicago Center
09:59PM 40.5869 -85.7036 100° East 476 548 35,000  Level Chicago Center
10:00PM 40.5661 -85.5361 99° East 471 542 35,000  Level Chicago Center
10:01PM 40.5397 -85.3314 100° East 474 545 35,000  Level Chicago Center
10:02PM 40.5181 -85.1622 100° East 474 545 35,000 -60 Level Chicago Center
10:03PM 40.5019 -85.0386 100° East 468 539 34,900 -60 Descending Indianapolis Center
10:04PM 40.4800 -84.8694 100° East 466 536 34,900  Level Indianapolis Center
10:05PM 40.4561 -84.7000 100° East 468 539 34,900  Level Indianapolis Center
10:06PM 40.4333 -84.5283 100° East 470 541 35,000  Climbing Indianapolis Center
10:07PM 40.4100 -84.3575 100° East 471 542 35,000 -60 Level Indianapolis Center
10:08PM 40.3864 -84.1867 100° East 471 542 34,900  Descending Indianapolis Center
10:09PM 40.3619 -84.0167 101° East 470 541 35,000  Climbing Indianapolis Center
10:10PM 40.3378 -83.8439 100° East 474 545 34,900  Descending Indianapolis Center
10:11PM 40.3136 -83.6725 100° East 474 545 35,000  Climbing Indianapolis Center
10:12PM 40.2886 -83.5000 101° East 474 545 35,000 -60 Level Indianapolis Center
10:13PM 40.2631 -83.3283 101° East 473 544 34,900  Descending Indianapolis Center
10:14PM 40.2375 -83.1564 101° East 474 545 35,000  Climbing Indianapolis Center
10:15PM 40.2117 -82.9842 101° East 475 547 34,900  Descending Indianapolis Center
10:16PM 40.1853 -82.8125 101° East 476 548 35,000  Climbing Indianapolis Center
10:17PM 40.1597 -82.6414 101° East 474 545 34,900  Descending Indianapolis Center
10:18PM 40.1417 -82.4675 98° East 480 552 35,000  Climbing Indianapolis Center
10:19PM 40.1314 -82.2931 94° East 477 549 35,000 -60 Level Indianapolis Center
10:20PM 40.1189 -82.1189 95° East 479 551 34,900  Descending Indianapolis Center
10:21PM 40.1056 -81.9458 96° East 475 547 35,000  Climbing Indianapolis Center
10:22PM 40.0925 -81.7719 96° East 477 549 35,000  Level Indianapolis Center
10:23PM 40.0803 -81.6139 96° East 476 548 35,000  Level Indianapolis Center
10:24PM 40.0600 -81.4425 99° East 478 550 35,000  Level Indianapolis Center
10:25PM 40.0319 -81.2747 102° East 472 543 35,000  Level Indianapolis Center
10:26PM 40.0058 -81.1061 101° East 471 542 35,000  Level Indianapolis Center
10:27PM 39.9778 -80.9356 102° East 476 548 35,000  Level Indianapolis Center
10:28PM 39.9500 -80.7658 102° East 477 549 35,000 -540 Level Indianapolis Center
10:29PM 39.9186 -80.5758 102° East 478 550 34,000 -540 Descending Indianapolis Center
10:30PM 39.8903 -80.4056 102° East 479 551 34,000  Level Indianapolis Center
10:31PM 39.8625 -80.2364 102° East 478 550 34,000  Level Indianapolis Center
10:32PM 39.8328 -80.0669 103° East 479 551 34,000  Level Indianapolis Center
10:33PM 39.8022 -79.8725 102° East 467 537 34,000  Level Washington Center
10:34PM 39.7744 -79.7169 103° East 475 547 34,000 -300 Level Washington Center
10:35PM 39.7444 -79.5506 103° East 475 547 33,400 -1,800 Descending Washington Center
10:36PM 39.7167 -79.3817 102° East 475 547 30,500 -3,240 Descending Washington Center
10:37PM 39.6883 -79.2183 103° East 475 547 27,000 -2,760 Descending Washington Center
10:38PM 39.6578 -79.0553 104° East 470 541 25,000 -1,020 Descending Washington Center
10:39PM 39.6150 -78.8725 107° East 470 541 25,000 -120 Level Washington Center
10:40PM 39.5797 -78.7067 105° East 480 552 24,800 -1,500 Descending Washington Center
10:41PM 39.5442 -78.5464 106° East 480 552 22,000 -2,820 Descending Washington Center
10:42PM 39.5103 -78.3917 106° East 468 539 19,200 -2,520 Descending Washington Center
10:43PM 39.4761 -78.2453 107° East 440 506 17,000 -2,100 Descending Washington Center
10:44PM 39.4542 -78.1047 101° East 414 476 15,000 -1,260 Descending Washington Center
10:45PM 39.4506 -77.9783 92° East 406 467 14,500 -600 Descending Washington Center
10:46PM 39.4511 -77.8383 90° East 394 453 13,800 -720 Descending Washington Center
10:47PM 39.4494 -77.6958 91° East 394 453 13,100 -840 Descending Washington Center
10:48PM 39.4475 -77.5589 91° East 388 447 12,200 -960 Descending Washington Center
10:49PM 39.4456 -77.4244 91° East 383 441 11,200 -660 Descending Washington Center
10:50PM 39.4500 -77.3167 87° East 308 354 11,000 -240 Descending Potomac TRACON
10:51PM 39.4667 -77.2000 79° East 300 345 10,800 -900 Descending Potomac TRACON
10:52PM 39.4333 -77.1000 113° Southeast 286 329 9,200 -2,040 Descending Potomac TRACON
10:53PM 39.3833 -77.0500 142° Southeast 269 310 6,800 -2,400 Descending Potomac TRACON
10:54PM 39.3167 -77.0000 150° Southeast 262 302 4,700 -1,440 Descending Potomac TRACON
10:55PM 39.2667 -76.9500 142° Southeast 230 265 4,000 -1,020 Descending Potomac TRACON
10:56PM 39.2167 -76.9167 153° Southeast 206 237 2,700 -1,140 Descending Potomac TRACON
10:57PM 39.1833 -76.8500 123° Southeast 165 190 1,700 -960 Descending Potomac TRACON